Latest Weather Observations for Temora

IDN60801

Issued at 9:33 am EST Thursday 3 September 2015 (issued every 30 minutes, with the page automatically refreshed every 10 minutes)

About weather observations | Map of weather stations | Latest weather observations for NSW | Other Formats
Station Details ID: 073151 Name: TEMORA AIRPORT Lat: -34.43 Lon: 147.51 Height: 280.5 m
Data from the previous 72 hours. | See also: Recent months at Temora
Date/Time
EST
Temp
°C
App
Temp
°C
Dew
Point
Rel
Hum
%
Delta-T
°C
Wind Press
QNH
hPa
Press
MSL
hPa
Rain
since 9 am
mm
Dir
 
Spd
km/h
Gust
km/h
Spd
kts
Gust
kts
03/09:30am 10.1 6.2 8.5 90 0.8 NW 19 26 10 14 1009.4 1009.4 0.0
03/09:00am 10.4 7.4 9.3 93 0.6 NW 15 20 8 11 1009.1 1009.1 7.2
03/08:30am 9.4 6.1 8.2 92 0.6 WNW 15 20 8 11 1008.7 1008.7 7.2
03/08:00am 9.1 6.7 8.5 96 0.3 WSW 11 15 6 8 1008.3 1008.3 7.2
03/07:30am 9.2 6.4 8.7 97 0.2 WNW 13 19 7 10 1007.9 1007.9 7.2
03/07:00am 9.2 7.3 9.1 99 0.1 WNW 9 13 5 7 1007.6 1007.6 7.2
03/06:30am 9.0 6.7 8.9 99 0.0 WNW 11 15 6 8 1007.0 1007.0 7.2
03/06:00am 8.8 6.3 8.4 97 0.2 NW 11 15 6 8 1006.5 1006.5 7.2
03/05:30am 9.1 6.3 8.6 97 0.2 NW 13 17 7 9 1006.1 1006.1 7.2
03/05:00am 9.4 6.7 8.9 97 0.2 NW 13 19 7 10 1005.9 1005.9 7.2
03/04:30am 9.5 6.8 8.9 96 0.3 NW 13 19 7 10 1005.8 1005.8 7.2
03/04:00am 9.7 7.0 8.8 94 0.4 WNW 13 17 7 9 1005.7 1005.7 7.2
03/03:30am 9.7 7.4 8.9 95 0.4 NW 11 15 6 8 1005.8 1005.8 7.2
03/03:00am 9.6 6.9 9.0 96 0.3 NW 13 19 7 10 1006.0 1006.0 7.2
03/02:30am 9.6 7.7 9.0 96 0.3 NNW 9 13 5 7 1006.2 1006.2 7.2
03/02:00am 9.8 7.4 8.7 93 0.5 NW 11 15 6 8 1006.3 1006.3 7.2
03/01:30am 9.8 7.0 8.7 93 0.5 WNW 13 19 7 10 1006.3 1006.3 7.2
03/01:00am 9.4 7.2 9.3 99 0.1 SW 11 15 6 8 1006.0 1006.0 7.2
03/12:30am 9.6 7.3 9.1 97 0.3 SSW 11 13 6 7 1005.4 1005.4 7.2
03/12:00am 9.7 7.4 9.1 96 0.3 SSW 11 20 6 11 1005.4 1005.4 7.2
 
Date/Time
EST
Temp
°C
App
Temp
°C
Dew
Point
Rel
Hum
%
Delta-T
°C
Wind Press
QNH
hPa
Press
MSL
hPa
Rain
since 9 am
mm
Dir
 
Spd
km/h
Gust
km/h
Spd
kts
Gust
kts
02/11:30pm 9.8 5.0 8.9 94 0.4 WSW 24 35 13 19 1006.1 1006.1 7.0
02/11:08pm 10.6 6.8 9.8 95 0.4 WNW 20 46 11 25 1006.7 1006.7 5.8
02/11:00pm 11.0 8.6 10.2 95 0.4 WNW 13 17 7 9 1006.5 1006.5 4.4
02/10:30pm 12.0 10.3 9.7 86 1.2 E 9 13 5 7 1005.9 1005.9 2.8
02/10:00pm 12.0 9.5 9.7 86 1.2 E 13 19 7 10 1006.5 1006.5 2.8
02/09:30pm 12.0 10.3 9.9 87 1.1 ESE 9 13 5 7 1006.6 1006.6 2.6
02/09:00pm 11.7 9.3 10.1 90 0.8 SE 13 17 7 9 1006.7 1006.7 2.6
02/08:30pm 13.3 11.3 8.6 73 2.4 ESE 9 20 5 11 1007.5 1007.4 1.0
02/08:00pm 13.5 9.7 9.0 74 2.3 E 19 28 10 15 1006.7 1006.7 1.0
02/07:30pm 12.8 9.1 9.6 81 1.7 E 19 26 10 14 1006.5 1006.5 1.0
02/07:00pm 12.9 11.1 9.4 79 1.8 NE 9 15 5 8 1008.1 1008.1 0.6
02/06:30pm 14.1 11.3 8.5 69 2.9 ENE 13 19 7 10 1007.7 1007.7 0.4
02/06:00pm 14.7 12.2 8.4 66 3.2 NE 11 13 6 7 1008.4 1008.4 0.0
02/05:30pm 15.6 12.6 7.9 60 3.9 NE 13 19 7 10 1008.1 1008.1 0.0
02/05:00pm 15.9 12.0 7.1 56 4.4 NE 17 22 9 12 1007.9 1007.9 0.0
02/04:30pm 16.3 11.9 7.5 56 4.5 NE 20 33 11 18 1008.1 1008.1 0.0
02/04:00pm 17.4 12.3 7.7 53 5.0 NE 24 32 13 17 1008.2 1008.2 0.0
02/03:30pm 17.3 12.4 8.4 56 4.6 NE 24 33 13 18 1008.9 1008.9 0.0
02/03:00pm 17.6 11.8 7.9 53 5.0 NNE 28 37 15 20 1009.6 1009.6 0.0
02/02:30pm 17.7 11.4 7.2 50 5.3 NNE 30 39 16 21 1010.1 1010.1 0.0
02/02:00pm 17.7 11.9 8.0 53 5.0 NNE 28 39 15 21 1010.8 1010.9 0.0
02/01:30pm 17.5 12.3 7.3 51 5.2 NE 24 32 13 17 1011.2 1011.2 0.0
02/01:00pm 17.1 12.5 8.0 55 4.7 NE 22 32 12 17 1011.9 1011.9 0.0
02/12:30pm 16.4 11.7 7.6 56 4.5 NE 22 28 12 15 1012.7 1012.7 0.0
02/12:00pm 15.9 10.9 7.9 59 4.1 NE 24 32 13 17 1013.3 1013.3 0.0
02/11:30am 15.3 10.9 7.6 60 3.9 ENE 20 30 11 16 1014.1 1014.2 0.0
02/11:00am 13.9 9.6 7.9 67 3.0 NE 20 24 11 13 1014.9 1014.9 0.0
02/10:30am 12.4 8.9 7.3 71 2.5 NE 15 19 8 10 1015.4 1015.4 0.0
02/10:00am 11.0 7.0 6.7 75 2.1 ENE 17 20 9 11 1016.1 1016.1 0.0
02/09:30am 10.5 6.9 6.6 77 1.9 ENE 15 20 8 11 1016.5 1016.5 0.0
02/09:00am 9.0 5.4 6.8 86 1.0 ENE 15 20 8 11 1016.6 1016.7 0.0
02/08:30am 7.2 3.7 5.3 88 0.9 ENE 13 17 7 9 1016.7 1016.8 0.0
02/08:00am 6.6 3.4 5.2 91 0.6 E 11 13 6 7 1016.7 1016.8 0.0
02/07:30am 5.9 3.0 4.9 93 0.4 ENE 9 13 5 7 1016.4 1016.4 0.0
02/07:00am 5.5 2.2 4.6 94 0.4 ENE 11 13 6 7 1016.3 1016.3 0.0
02/06:30am 4.8 1.9 4.7 99 0.0 ENE 9 13 5 7 1016.2 1016.2 0.0
02/06:00am 3.5 0.8 2.8 95 0.3 NNE 6 7 3 4 1016.4 1016.4 0.0
02/05:30am 5.3 2.1 5.2 99 0.0 E 11 15 6 8 1015.9 1015.9 0.0
02/05:00am 2.8 -0.1 2.8 100 0.0 ESE 7 9 4 5 1015.9 1015.9 0.0
02/04:30am 2.2 -0.2 2.2 100 0.0 SE 4 7 2 4 1016.1 1016.1 0.0
02/04:00am 1.6 -0.1 1.6 100 0.0 CALM 0 0 0 0 1016.2 1016.2 0.0
02/03:30am 0.8 -1.1 0.7 99 0.0 CALM 0 0 0 0 1016.4 1016.4 0.0
02/03:00am 0.2 -1.8 0.1 99 0.0 CALM 0 0 0 0 1016.5 1016.5 0.0
02/02:30am 0.6 -1.3 0.5 99 0.0 CALM 0 0 0 0 1016.8 1016.9 0.0
02/02:00am 0.5 -1.8 0.4 99 0.0 E 2 6 1 3 1017.3 1017.4 0.0
02/01:30am 1.4 -2.1 1.3 99 0.0 S 9 9 5 5 1017.4 1017.5 0.0
02/01:00am 1.1 -0.7 1.0 99 0.0 CALM 0 7 0 4 1017.6 1017.7 0.0
02/12:30am 1.1 -0.7 1.0 99 0.0 CALM 0 0 0 0 1017.5 1017.6 0.0
02/12:00am 1.5 -1.4 1.4 99 0.0 SSE 6 6 3 3 1017.4 1017.5 0.0
 
Date/Time
EST
Temp
°C
App
Temp
°C
Dew
Point
Rel
Hum
%
Delta-T
°C
Wind Press
QNH
hPa
Press
MSL
hPa
Rain
since 9 am
mm
Dir
 
Spd
km/h
Gust
km/h
Spd
kts
Gust
kts
01/11:30pm 2.4 -0.4 2.3 99 0.0 S 6 7 3 4 1017.5 1017.6 0.0
01/11:00pm 2.3 0.3 2.2 99 0.0 S 2 6 1 3 1017.4 1017.5 0.0
01/10:30pm 2.3 0.7 2.2 99 0.0 CALM 0 0 0 0 1017.3 1017.4 0.0
01/10:00pm 2.6 -0.1 2.5 99 0.0 S 6 7 3 4 1017.0 1017.1 0.0
01/09:30pm 2.4 -0.4 2.3 99 0.0 S 6 7 3 4 1017.1 1017.2 0.0
01/09:00pm 3.6 0.9 3.5 99 0.0 S 7 7 4 4 1017.0 1017.1 0.0
01/08:30pm 3.3 0.4 2.4 94 0.4 SSW 7 9 4 5 1016.7 1016.8 0.0
01/08:00pm 5.1 3.8 4.1 93 0.4 CALM 0 0 0 0 1016.5 1016.5 0.0
01/07:30pm 6.4 5.2 4.7 89 0.8 CALM 0 0 0 0 1016.2 1016.2 0.0
01/07:00pm 8.3 7.2 5.2 81 1.4 CALM 0 0 0 0 1016.3 1016.3 0.0
01/06:30pm 8.8 7.7 5.2 78 1.6 CALM 0 0 0 0 1016.1 1016.1 0.0
01/06:00pm 10.3 8.2 5.7 73 2.1 W 6 6 3 3 1015.7 1015.7 0.0
01/05:30pm 12.2 10.3 6.7 69 2.7 WNW 6 9 3 5 1015.6 1015.6 0.0
01/05:00pm 13.2 10.6 6.1 62 3.4 NW 9 11 5 6 1015.6 1015.6 0.0
01/04:30pm 14.1 11.0 3.6 49 4.8 WNW 9 15 5 8 1015.5 1015.5 0.0
01/04:00pm 14.4 11.8 4.1 50 4.8 NW 7 11 4 6 1015.7 1015.7 0.0
01/03:30pm 14.9 12.8 5.7 54 4.5 SW 6 13 3 7 1015.9 1015.9 0.0
01/03:00pm 14.5 11.3 5.0 53 4.5 WNW 11 17 6 9 1016.1 1016.1 0.0
01/02:30pm 14.1 10.4 4.7 53 4.4 WSW 13 20 7 11 1016.3 1016.3 0.0
01/02:00pm 14.0 10.6 5.9 58 3.9 WNW 13 19 7 10 1016.5 1016.5 0.0
01/01:30pm 13.8 10.3 5.4 57 4.0 WNW 13 22 7 12 1016.8 1016.9 0.0
01/01:00pm 13.9 10.6 6.3 60 3.7 NW 13 20 7 11 1016.9 1017.0 0.0
01/12:30pm 12.9 9.6 4.6 57 3.9 WNW 11 19 6 10 1017.1 1017.2 0.0
01/12:00pm 12.2 9.0 4.9 61 3.4 WSW 11 22 6 12 1017.5 1017.6 0.0
01/11:30am 12.5 9.6 6.3 66 3.0 WNW 11 19 6 10 1018.1 1018.2 0.0
01/11:00am 11.7 8.1 5.1 64 3.1 NW 13 20 7 11 1018.3 1018.4 0.0
01/10:30am 10.8 7.6 5.3 69 2.6 WNW 11 15 6 8 1018.4 1018.5 0.0
01/10:00am 10.5 8.6 7.6 82 1.4 NNW 7 13 4 7 1018.4 1018.5 0.0
01/09:30am 8.1 6.5 8.1 100 0.0 NNW 6 11 3 6 1018.8 1019.2 0.0
01/09:00am 5.8 3.5 5.8 100 0.0 N 7 11 4 6 1018.8 1019.2 0.0
01/08:30am 3.9 1.4 3.9 100 0.0 N 6 9 3 5 1018.6 1019.0 0.0
01/08:00am 1.0 -0.8 0.9 99 0.0 CALM 0 0 0 0 1018.2 1018.6 0.0
01/07:30am -0.2 -2.6 -0.3 99 0.0 W 2 6 1 3 1017.9 1018.3 0.0
01/07:00am -1.0 -3.9 -1.1 99 0.0 WNW 4 7 2 4 1017.6 1018.0 0.0
01/06:30am -1.1 -4.4 -1.2 99 0.0 SSW 6 7 3 4 1017.1 1017.5 0.0
01/06:00am -0.9 -3.0 -1.0 99 0.0 CALM 0 2 0 1 1017.1 1017.5 0.0
01/05:30am -0.9 -4.2 -1.0 99 0.0 SW 6 9 3 5 1017.1 1017.5 0.0
01/05:00am -1.0 -3.1 -1.1 99 0.0 CALM 0 0 0 0 1016.8 1017.2 0.0
01/04:30am 0.0 -2.0 -0.1 99 0.0 CALM 0 0 0 0 1016.9 1017.3 0.0
01/04:00am 0.0 -2.0 -0.1 99 0.0 CALM 0 0 0 0 1017.1 1017.5 0.0
01/03:30am 0.0 -2.0 -0.1 99 0.0 CALM 0 0 0 0 1017.0 1017.4 0.0
01/03:00am 0.8 -1.1 0.7 99 0.0 CALM 0 0 0 0 1017.1 1017.5 0.0
01/02:30am 0.8 -1.1 0.7 99 0.0 CALM 0 0 0 0 1017.4 1017.8 0.0
01/02:00am 1.2 -0.6 1.1 99 0.0 CALM 0 0 0 0 1017.6 1018.0 0.0
01/01:30am 2.0 0.3 1.9 99 0.0 CALM 0 0 0 0 1017.9 1018.3 0.0
01/01:00am 1.7 0.0 1.6 99 0.0 CALM 0 0 0 0 1018.0 1018.4 0.0
01/12:30am 2.4 0.4 2.3 99 0.0 SW 2 6 1 3 1018.1 1018.5 0.0
01/12:00am 2.7 -0.2 2.6 99 0.0 SW 7 7 4 4 1018.3 1018.7 0.0
 
Date/Time
EST
Temp
°C
App
Temp
°C
Dew
Point
Rel
Hum
%
Delta-T
°C
Wind Press
QNH
hPa
Press
MSL
hPa
Rain
since 9 am
mm
Dir
 
Spd
km/h
Gust
km/h
Spd
kts
Gust
kts
31/11:30pm 2.5 -0.3 2.2 98 0.1 W 6 6 3 3 1018.2 1018.6 0.0
31/11:00pm 2.8 0.1 2.5 98 0.1 W 6 7 3 4 1018.4 1018.9 0.0
31/10:30pm 3.8 1.6 3.5 98 0.1 W 4 6 2 3 1018.4 1018.9 0.0
31/10:00pm 4.2 2.9 3.9 98 0.1 CALM 0 0 0 0 1018.6 1019.0 0.0
31/09:30pm 2.8 0.0 2.1 95 0.3 WSW 6 7 3 4 1018.6 1019.0 0.0
31/09:00pm 4.0 1.4 3.4 96 0.2 W 6 7 3 4 1018.3 1018.7 0.0
31/08:30pm 4.3 1.6 2.8 90 0.6 SW 6 6 3 3 1018.2 1018.6 0.0
31/08:00pm 6.2 4.6 4.5 89 0.7 SW 2 6 1 3 1018.0 1018.4 0.0
31/07:30pm 8.2 6.0 5.1 81 1.4 SW 6 7 3 4 1017.8 1018.2 0.0
31/07:00pm 8.6 6.2 5.2 79 1.5 WSW 7 11 4 6 1017.5 1017.9 0.0
31/06:30pm 9.2 6.8 5.2 76 1.8 SW 7 9 4 5 1017.4 1017.8 0.0
31/06:00pm 9.9 7.1 5.3 73 2.1 SW 9 11 5 6 1017.3 1017.7 0.0
31/05:30pm 11.6 8.5 5.7 67 2.8 WSW 11 15 6 8 1017.2 1017.6 0.0
31/05:00pm 12.8 9.0 5.7 62 3.4 WSW 15 19 8 10 1017.0 1017.4 0.0
31/04:30pm 13.6 10.2 5.7 59 3.8 WSW 13 24 7 13 1016.8 1017.2 0.0
31/04:00pm 14.1 10.5 4.9 54 4.3 SW 13 19 7 10 1016.7 1017.1 0.0
31/03:30pm 14.4 10.3 6.0 57 4.1 W 17 24 9 13 1017.0 1017.4 0.0
31/03:00pm 14.5 10.8 6.1 57 4.1 WSW 15 24 8 13 1017.2 1017.6 0.0
31/02:30pm 14.0 10.0 6.6 61 3.6 WSW 17 22 9 12 1017.3 1017.7 0.0
31/02:00pm 13.6 9.8 6.0 60 3.7 WSW 15 22 8 12 1017.6 1018.0 0.0
31/01:30pm 14.2 10.5 6.1 58 3.9 W 15 26 8 14 1017.7 1018.1 0.0
31/01:00pm 13.9 10.6 6.3 60 3.7 W 13 20 7 11 1018.0 1018.4 0.0
31/12:30pm 13.3 10.4 6.4 63 3.3 W 11 17 6 9 1018.4 1018.9 0.0
31/12:00pm 12.5 9.6 6.5 67 2.9 SW 11 17 6 9 1018.8 1019.2 0.0
31/11:30am 12.5 9.6 6.3 66 3.0 WNW 11 17 6 9 1019.2 1019.6 0.0
31/11:00am 11.6 8.7 6.5 71 2.4 SW 11 17 6 9 1019.6 1020.0 0.0
31/10:30am 11.2 8.6 7.7 79 1.7 SW 11 20 6 11 1019.7 1020.1 0.0
31/10:00am 9.8 7.9 7.4 85 1.2 SW 7 9 4 5 1019.9 1020.3 0.0

Other Formats:

Comma delimited format used in spreadsheet applications
http://www.bom.gov.au/fwo/IDN60801/IDN60801.95722.axf

JavaScript Object Notation format (JSON) in row-major order
http://www.bom.gov.au/fwo/IDN60801/IDN60801.95722.json